Aviation Digital Data Service (ADDS)

Output produced by METARs form (1151 UTC 01 August 2014)
found at http://www.aviationweather.gov/adds/metars/
 
KATL 011136Z 0112/0218 06007KT P6SM VCSH OVC007 
     FM011500 04006KT P6SM VCSH BKN012 
     FM011800 05007KT P6SM VCSH SCT025 BKN035 
     TEMPO 0119/0123 6SM -SHRA BR BKN025 
     FM012300 07007KT P6SM VCSH BKN025 
     FM020800 07005KT P6SM OVC008 
     FM021500 06006KT P6SM BKN015